createdAt,value
2023-05-06T00:00:23.813Z,13.10
2023-05-06T00:02:28.038Z,13.00
2023-05-06T00:04:32.626Z,13.10
2023-05-06T00:06:35.599Z,13.10
2023-05-06T00:08:38.466Z,13.10
2023-05-06T00:10:41.259Z,13.10
2023-05-06T00:12:44.106Z,13.10
2023-05-06T00:14:46.909Z,13.00
2023-05-06T00:16:51.007Z,13.00
2023-05-06T00:18:53.783Z,13.00
2023-05-06T00:20:57.923Z,13.00
2023-05-06T00:23:00.884Z,13.00
2023-05-06T00:25:03.876Z,13.00
2023-05-06T00:27:06.684Z,13.00
2023-05-06T00:29:09.452Z,13.00
2023-05-06T00:31:12.234Z,13.00
2023-05-06T00:33:14.998Z,12.90
2023-05-06T00:35:17.784Z,12.90
2023-05-06T00:37:21.907Z,12.90
2023-05-06T00:39:25.327Z,12.90
2023-05-06T00:41:32.156Z,12.90
2023-05-06T00:43:34.967Z,12.80
2023-05-06T00:45:37.947Z,12.90
2023-05-06T00:47:41.014Z,12.80
2023-05-06T00:49:43.834Z,12.80
2023-05-06T00:51:46.632Z,12.80
2023-05-06T00:53:50.921Z,12.80
2023-05-06T00:55:53.704Z,12.70
2023-05-06T00:57:56.489Z,12.70
2023-05-06T00:59:59.283Z,12.60
2023-05-06T01:02:02.071Z,12.50
2023-05-06T01:04:05.082Z,12.40
2023-05-06T01:06:14.371Z,12.40
2023-05-06T01:08:19.794Z,12.30
2023-05-06T01:10:26.921Z,12.30
2023-05-06T01:12:32.066Z,12.20
2023-05-06T01:14:39.616Z,12.20
2023-05-06T01:16:42.777Z,12.10
2023-05-06T01:18:45.559Z,12.10
2023-05-06T01:20:49.769Z,12.10
2023-05-06T01:22:52.570Z,12.10
2023-05-06T01:24:56.684Z,12.20
2023-05-06T01:26:59.475Z,12.20
2023-05-06T01:29:02.428Z,12.30
2023-05-06T01:31:09.113Z,12.30
2023-05-06T01:33:16.796Z,12.30
2023-05-06T01:35:22.559Z,12.30
2023-05-06T01:37:29.101Z,12.30
2023-05-06T01:39:32.241Z,12.30
2023-05-06T01:41:36.364Z,12.30
2023-05-06T01:43:40.967Z,12.40
2023-05-06T01:45:43.757Z,12.30
2023-05-06T01:47:46.787Z,12.40
2023-05-06T01:49:49.623Z,12.40
2023-05-06T01:51:52.756Z,12.40
2023-05-06T01:53:55.742Z,12.40
2023-05-06T01:55:58.528Z,12.40
2023-05-06T01:58:02.660Z,12.30
2023-05-06T02:00:06.665Z,12.30
2023-05-06T02:02:09.482Z,12.10
2023-05-06T02:04:12.577Z,12.10
2023-05-06T02:06:15.391Z,11.90
2023-05-06T02:08:18.193Z,11.80
2023-05-06T02:10:20.991Z,11.70
2023-05-06T02:12:23.769Z,11.60
2023-05-06T02:14:27.893Z,11.60
2023-05-06T02:16:30.795Z,11.50
2023-05-06T02:18:33.675Z,11.50
2023-05-06T02:20:36.466Z,11.50
2023-05-06T02:22:39.253Z,11.40
2023-05-06T02:24:41.996Z,11.40
2023-05-06T02:26:44.796Z,11.40
2023-05-06T02:28:47.536Z,11.30
2023-05-06T02:30:55.398Z,11.30
2023-05-06T02:32:58.384Z,11.20
2023-05-06T02:35:01.198Z,11.20
2023-05-06T02:37:03.989Z,11.20
2023-05-06T02:39:07.006Z,11.20
2023-05-06T02:41:10.595Z,11.20
2023-05-06T02:43:13.412Z,11.20
2023-05-06T02:45:16.178Z,11.20
2023-05-06T02:47:20.332Z,11.20
2023-05-06T02:49:23.118Z,11.20
2023-05-06T02:51:25.887Z,11.20
2023-05-06T02:53:28.645Z,11.20
2023-05-06T02:55:31.466Z,11.20
2023-05-06T02:57:34.349Z,11.20
2023-05-06T02:59:37.123Z,11.10
2023-05-06T03:01:40.021Z,11.10
2023-05-06T03:03:44.388Z,11.10
2023-05-06T03:05:47.169Z,11.10
2023-05-06T03:07:49.938Z,11.10
2023-05-06T03:09:52.724Z,11.10
2023-05-06T03:11:55.857Z,11.00
2023-05-06T03:13:58.643Z,11.00
2023-05-06T03:16:01.407Z,11.00
2023-05-06T03:18:04.327Z,10.90
2023-05-06T03:20:10.079Z,10.90
2023-05-06T03:22:12.862Z,10.90
2023-05-06T03:24:15.972Z,10.90
2023-05-06T03:26:18.726Z,10.90
2023-05-06T03:28:21.498Z,10.90
2023-05-06T03:30:24.257Z,10.90
2023-05-06T03:32:27.119Z,10.90
2023-05-06T03:34:30.573Z,10.90
2023-05-06T03:36:34.681Z,10.90
2023-05-06T03:38:37.427Z,10.90
2023-05-06T03:40:40.207Z,10.90
2023-05-06T03:42:42.997Z,11.00
2023-05-06T03:44:45.828Z,11.00
2023-05-06T03:46:48.617Z,11.10
2023-05-06T03:48:51.400Z,11.10
2023-05-06T03:50:54.188Z,11.20
2023-05-06T03:52:58.400Z,11.20
2023-05-06T03:55:01.207Z,11.20
2023-05-06T03:57:03.958Z,11.20
2023-05-06T03:59:06.741Z,11.30
2023-05-06T04:01:09.514Z,11.30
2023-05-06T04:03:12.464Z,11.40
2023-05-06T04:05:16.205Z,11.40
2023-05-06T04:07:18.973Z,11.40
2023-05-06T04:09:23.096Z,11.40
2023-05-06T04:11:27.050Z,11.50
2023-05-06T04:13:30.789Z,11.50
2023-05-06T04:15:34.556Z,11.50
2023-05-06T04:17:37.380Z,11.50
2023-05-06T04:19:40.208Z,11.50
2023-05-06T04:21:42.955Z,11.50
2023-05-06T04:23:45.770Z,11.50
2023-05-06T04:25:49.856Z,11.60
2023-05-06T04:27:53.264Z,11.60
2023-05-06T04:29:56.017Z,11.60
2023-05-06T04:31:59.085Z,11.60
2023-05-06T04:34:02.653Z,11.60
2023-05-06T04:36:06.560Z,11.60
2023-05-06T04:38:09.879Z,11.60
2023-05-06T04:40:14.923Z,11.60
2023-05-06T04:42:19.066Z,11.60
2023-05-06T04:44:22.372Z,11.60
2023-05-06T04:46:25.222Z,11.60
2023-05-06T04:48:28.459Z,11.60
2023-05-06T04:50:31.249Z,11.70
2023-05-06T04:52:34.016Z,11.60
2023-05-06T04:54:36.756Z,11.50
2023-05-06T04:56:39.543Z,11.60
2023-05-06T04:58:43.654Z,11.60
2023-05-06T05:00:46.443Z,11.70
2023-05-06T05:02:49.360Z,11.70
2023-05-06T05:04:52.350Z,11.90
2023-05-06T05:06:55.102Z,12.00
2023-05-06T05:08:59.353Z,12.10
2023-05-06T05:11:02.387Z,12.20
2023-05-06T05:13:05.308Z,12.30
2023-05-06T05:15:10.433Z,12.30
2023-05-06T05:17:13.561Z,12.40
2023-05-06T05:19:16.463Z,12.40
2023-05-06T05:21:20.971Z,12.40
2023-05-06T05:23:23.780Z,12.50
2023-05-06T05:25:26.979Z,12.50
2023-05-06T05:27:29.767Z,12.60
2023-05-06T05:29:32.551Z,12.50
2023-05-06T05:31:36.753Z,12.50
2023-05-06T05:33:39.728Z,12.30
2023-05-06T05:35:42.596Z,12.30
2023-05-06T05:37:45.369Z,12.30
2023-05-06T05:39:48.119Z,12.30
2023-05-06T05:41:50.907Z,12.30
2023-05-06T05:43:53.674Z,12.30
2023-05-06T05:45:56.445Z,12.30
2023-05-06T05:48:00.744Z,12.40
2023-05-06T05:50:05.362Z,12.40
2023-05-06T05:52:09.806Z,12.50
2023-05-06T05:54:12.654Z,12.60
2023-05-06T05:56:15.439Z,12.60
2023-05-06T05:58:18.216Z,12.70
2023-05-06T06:00:21.906Z,12.70
2023-05-06T06:02:24.858Z,12.70
2023-05-06T06:04:29.132Z,12.70
2023-05-06T06:06:32.426Z,12.90
2023-05-06T06:08:35.182Z,13.10
2023-05-06T06:10:37.966Z,13.40
2023-05-06T06:12:40.787Z,13.40
2023-05-06T06:14:47.875Z,13.50
2023-05-06T06:16:50.667Z,13.50
2023-05-06T06:18:54.125Z,13.40
2023-05-06T06:20:58.419Z,13.50
2023-05-06T06:23:01.300Z,13.60
2023-05-06T06:25:04.152Z,13.70
2023-05-06T06:27:06.909Z,13.90
2023-05-06T06:29:09.686Z,13.90
2023-05-06T06:31:12.516Z,14.00
2023-05-06T06:33:15.331Z,14.30
2023-05-06T06:35:19.101Z,14.60
2023-05-06T06:37:23.239Z,14.60
2023-05-06T06:39:26.124Z,14.80
2023-05-06T06:41:29.034Z,14.70
2023-05-06T06:43:31.830Z,14.60
2023-05-06T06:45:34.628Z,14.50
2023-05-06T06:47:37.492Z,14.80
2023-05-06T06:49:40.443Z,14.90
2023-05-06T06:51:43.250Z,14.80
2023-05-06T06:53:48.954Z,14.60
2023-05-06T06:55:51.735Z,14.50
2023-05-06T06:57:54.555Z,14.40
2023-05-06T06:59:57.319Z,14.40
2023-05-06T07:02:00.128Z,14.60
2023-05-06T07:04:04.255Z,14.60
2023-05-06T07:06:08.347Z,14.60
2023-05-06T07:08:11.262Z,14.50
2023-05-06T07:10:15.757Z,14.50
2023-05-06T07:12:18.543Z,14.60
2023-05-06T07:14:21.700Z,14.60
2023-05-06T07:16:24.599Z,14.60
2023-05-06T07:18:27.298Z,14.70
2023-05-06T07:20:30.082Z,14.80
2023-05-06T07:22:32.839Z,14.90
2023-05-06T07:24:35.645Z,15.00
2023-05-06T07:26:39.782Z,15.10
2023-05-06T07:28:42.611Z,15.00
2023-05-06T07:30:45.815Z,15.70
2023-05-06T07:32:48.623Z,16.00
2023-05-06T07:34:51.468Z,16.10
2023-05-06T07:36:54.366Z,16.10
2023-05-06T07:38:57.253Z,16.10
2023-05-06T07:41:00.143Z,15.80
2023-05-06T07:43:04.501Z,15.80
2023-05-06T07:45:08.529Z,16.30
2023-05-06T07:47:11.583Z,16.40
2023-05-06T07:49:14.422Z,16.60
2023-05-06T07:51:17.661Z,17.10
2023-05-06T07:53:20.430Z,17.00
2023-05-06T07:55:23.197Z,16.70
2023-05-06T07:57:25.982Z,16.60
2023-05-06T07:59:30.155Z,16.60
2023-05-06T08:01:33.286Z,17.40
2023-05-06T08:03:36.256Z,17.40
2023-05-06T08:05:39.165Z,17.40
2023-05-06T08:07:42.203Z,17.50
2023-05-06T08:09:45.003Z,17.40
2023-05-06T08:11:47.808Z,17.20
2023-05-06T08:13:50.603Z,16.90
2023-05-06T08:15:54.795Z,16.90
2023-05-06T08:18:00.347Z,16.80
2023-05-06T08:20:10.953Z,16.80
2023-05-06T08:22:14.804Z,16.90
2023-05-06T08:24:17.629Z,17.10
2023-05-06T08:26:20.407Z,17.30
2023-05-06T08:28:24.673Z,17.20
2023-05-06T08:30:28.576Z,17.20
2023-05-06T08:32:32.710Z,17.00
2023-05-06T08:34:35.883Z,16.90
2023-05-06T08:36:38.874Z,17.00
2023-05-06T08:38:41.656Z,16.80
2023-05-06T08:40:45.201Z,16.70
2023-05-06T08:42:48.352Z,16.60
2023-05-06T08:44:51.778Z,16.40
2023-05-06T08:46:54.569Z,16.40
2023-05-06T08:48:58.823Z,16.60
2023-05-06T08:51:01.698Z,16.80
2023-05-06T08:53:04.499Z,16.80
2023-05-06T08:55:09.090Z,17.40
2023-05-06T08:57:12.788Z,17.40
2023-05-06T08:59:15.609Z,17.50
2023-05-06T09:01:18.764Z,17.30
2023-05-06T09:03:21.802Z,17.40
2023-05-06T09:05:25.960Z,17.40
2023-05-06T09:07:28.760Z,17.50
2023-05-06T09:09:31.560Z,17.60
2023-05-06T09:11:34.338Z,17.70
2023-05-06T09:13:37.139Z,17.30
2023-05-06T09:15:44.217Z,17.20
2023-05-06T09:17:47.055Z,17.00
2023-05-06T09:19:49.991Z,17.00
2023-05-06T09:21:54.196Z,16.90
2023-05-06T09:23:56.992Z,17.00
2023-05-06T09:25:59.775Z,17.10
2023-05-06T09:28:05.619Z,17.10
2023-05-06T09:30:09.381Z,17.20
2023-05-06T09:32:12.247Z,17.30
2023-05-06T09:34:15.448Z,17.30
2023-05-06T09:36:18.999Z,17.40
2023-05-06T09:38:23.101Z,17.30
2023-05-06T09:40:25.871Z,17.30
2023-05-06T09:42:29.681Z,17.10
2023-05-06T09:44:32.892Z,17.00
2023-05-06T09:46:35.693Z,17.00
2023-05-06T09:48:38.503Z,16.90
2023-05-06T09:50:41.352Z,16.80
2023-05-06T09:52:46.079Z,17.00
2023-05-06T09:54:51.490Z,17.10
2023-05-06T09:56:55.936Z,17.10
2023-05-06T09:58:58.770Z,17.20
2023-05-06T10:01:01.598Z,17.20
2023-05-06T10:03:04.592Z,17.30
2023-05-06T10:05:08.506Z,17.60
2023-05-06T10:07:12.799Z,17.90
2023-05-06T10:09:16.240Z,17.90
2023-05-06T10:11:20.425Z,17.90
2023-05-06T10:13:24.665Z,17.80
2023-05-06T10:15:27.458Z,17.80
2023-05-06T10:17:30.307Z,18.00
2023-05-06T10:19:33.149Z,17.90
2023-05-06T10:21:36.886Z,17.70
2023-05-06T10:23:45.242Z,18.10
2023-05-06T10:25:51.871Z,17.90
2023-05-06T10:27:56.014Z,17.80
2023-05-06T10:30:00.936Z,17.90
2023-05-06T10:32:04.163Z,17.90
2023-05-06T10:34:07.029Z,17.90
2023-05-06T10:36:15.566Z,17.80
2023-05-06T10:38:21.109Z,17.70
2023-05-06T10:40:24.060Z,17.70
2023-05-06T10:42:28.261Z,17.90
2023-05-06T10:45:03.773Z,17.90
2023-05-06T10:47:06.608Z,18.30
2023-05-06T10:49:19.957Z,18.60
2023-05-06T10:51:27.284Z,18.70
2023-05-06T10:54:02.299Z,18.70
2023-05-06T10:56:09.046Z,18.80
2023-05-06T10:58:14.562Z,19.10
2023-05-06T11:00:19.701Z,19.00
2023-05-06T11:02:22.705Z,19.20
2023-05-06T11:04:25.543Z,19.20
2023-05-06T11:06:40.321Z,19.30
2023-05-06T11:08:44.667Z,19.20
2023-05-06T11:10:49.288Z,19.30
2023-05-06T11:12:52.818Z,19.20
2023-05-06T11:14:55.770Z,19.10
2023-05-06T11:17:01.559Z,19.10
2023-05-06T11:19:04.583Z,19.00
2023-05-06T11:21:38.714Z,18.90
2023-05-06T11:24:07.009Z,18.70
2023-05-06T11:26:09.817Z,18.70
2023-05-06T11:28:12.988Z,18.80
2023-05-06T11:30:17.219Z,18.60
2023-05-06T11:32:23.729Z,18.80
2023-05-06T11:34:27.902Z,18.80
2023-05-06T11:36:31.313Z,18.80
2023-05-06T11:38:42.791Z,18.80
2023-05-06T11:40:46.101Z,18.90
2023-05-06T11:42:48.918Z,18.70
2023-05-06T11:44:51.681Z,18.70
2023-05-06T11:46:58.083Z,18.90
2023-05-06T11:49:02.302Z,18.90
2023-05-06T11:51:05.374Z,18.60
2023-05-06T11:53:09.489Z,18.70
2023-05-06T11:55:12.561Z,18.90
2023-05-06T11:57:15.715Z,19.20
2023-05-06T11:59:19.485Z,19.40
2023-05-06T12:01:22.261Z,19.40
2023-05-06T12:03:25.656Z,19.60
2023-05-06T12:05:30.006Z,19.90
2023-05-06T12:07:32.787Z,20.20
2023-05-06T12:09:36.032Z,20.60
2023-05-06T12:11:39.056Z,20.90
2023-05-06T12:13:41.915Z,22.00
2023-05-06T12:15:44.754Z,22.60
2023-05-06T12:17:47.552Z,22.30
2023-05-06T12:19:50.695Z,22.30
2023-05-06T12:21:54.824Z,22.20
2023-05-06T12:23:59.328Z,21.90
2023-05-06T12:26:03.779Z,21.20
2023-05-06T12:28:15.450Z,21.30
2023-05-06T12:30:29.857Z,22.00
2023-05-06T12:32:32.741Z,22.80
2023-05-06T12:34:38.783Z,23.50
2023-05-06T12:36:42.445Z,23.90
2023-05-06T12:38:53.416Z,23.10
2023-05-06T12:40:56.457Z,22.30
2023-05-06T12:42:59.228Z,21.90
2023-05-06T12:45:14.398Z,21.50
2023-05-06T12:47:20.310Z,21.10
2023-05-06T12:49:23.076Z,21.00
2023-05-06T12:51:26.664Z,20.80
2023-05-06T12:53:33.167Z,21.30
2023-05-06T12:55:38.308Z,21.80
2023-05-06T12:57:41.103Z,22.40
2023-05-06T12:59:44.328Z,23.00
2023-05-06T13:01:47.132Z,23.60
2023-05-06T13:03:50.478Z,23.60
2023-05-06T13:05:53.297Z,23.20
2023-05-06T13:07:56.260Z,23.30
2023-05-06T13:09:59.031Z,23.60
2023-05-06T13:12:04.534Z,23.70
2023-05-06T13:14:07.714Z,23.80
2023-05-06T13:16:10.833Z,23.70
2023-05-06T13:18:13.619Z,23.50
2023-05-06T13:20:16.436Z,23.40
2023-05-06T13:22:19.213Z,23.00
2023-05-06T13:24:22.043Z,22.80
2023-05-06T13:26:24.932Z,23.10
2023-05-06T13:28:29.068Z,23.30
2023-05-06T13:30:32.398Z,23.40
2023-05-06T13:32:35.268Z,23.30
2023-05-06T13:34:38.096Z,23.30
2023-05-06T13:36:41.429Z,23.40
2023-05-06T13:38:44.213Z,23.30
2023-05-06T13:40:48.277Z,23.50
2023-05-06T13:42:51.411Z,23.40
2023-05-06T13:44:55.527Z,23.30
2023-05-06T13:46:58.427Z,23.30
2023-05-06T13:49:01.285Z,23.20
2023-05-06T13:51:04.661Z,22.30
2023-05-06T13:53:07.473Z,22.80
2023-05-06T13:55:10.879Z,22.80
2023-05-06T13:57:13.898Z,22.80
2023-05-06T13:59:16.652Z,23.30
2023-05-06T14:01:21.326Z,23.30
2023-05-06T14:03:24.638Z,23.30
2023-05-06T14:05:27.539Z,23.50
2023-05-06T14:07:30.331Z,23.40
2023-05-06T14:09:33.157Z,23.30
2023-05-06T14:11:36.042Z,23.10
2023-05-06T14:13:40.100Z,23.30
2023-05-06T14:15:42.882Z,23.00
2023-05-06T14:17:47.045Z,23.10
2023-05-06T14:19:49.864Z,23.10
2023-05-06T14:21:53.196Z,23.30
2023-05-06T14:23:55.960Z,23.10
2023-05-06T14:25:58.745Z,23.40
2023-05-06T14:28:01.529Z,23.30
2023-05-06T14:30:08.253Z,22.80
2023-05-06T14:32:11.986Z,23.10
2023-05-06T14:34:16.161Z,23.20
2023-05-06T14:36:19.832Z,23.40
2023-05-06T14:38:22.628Z,23.50
2023-05-06T14:40:25.644Z,23.20
2023-05-06T14:42:28.419Z,23.20
2023-05-06T14:44:31.200Z,22.80
2023-05-06T14:46:34.024Z,22.20
2023-05-06T14:48:36.815Z,21.90
2023-05-06T14:50:41.175Z,21.80
2023-05-06T14:52:43.965Z,22.10
2023-05-06T14:54:46.725Z,22.20
2023-05-06T14:56:49.705Z,22.30
2023-05-06T14:58:52.532Z,22.10
2023-05-06T15:00:55.341Z,22.10
2023-05-06T15:02:59.270Z,22.20
2023-05-06T15:05:04.044Z,22.00
2023-05-06T15:07:09.173Z,22.30
2023-05-06T15:09:11.943Z,22.10
2023-05-06T15:11:14.769Z,21.30
2023-05-06T15:13:17.665Z,21.70
2023-05-06T15:15:20.614Z,21.30
2023-05-06T15:17:23.559Z,21.60
2023-05-06T15:19:26.664Z,21.70
2023-05-06T15:21:29.572Z,21.70
2023-05-06T15:23:33.678Z,21.80
2023-05-06T15:25:36.833Z,21.50
2023-05-06T15:27:39.836Z,21.50
2023-05-06T15:29:42.630Z,21.40
2023-05-06T15:31:45.567Z,21.40
2023-05-06T15:33:48.347Z,21.40
2023-05-06T15:35:51.371Z,21.10
2023-05-06T15:37:55.433Z,21.10
2023-05-06T15:39:59.571Z,20.80
2023-05-06T15:42:02.648Z,20.90
2023-05-06T15:44:06.398Z,20.70
2023-05-06T15:46:09.446Z,20.70
2023-05-06T15:48:12.476Z,20.70
2023-05-06T15:50:28.877Z,20.70
2023-05-06T15:52:35.120Z,20.80
2023-05-06T15:54:37.970Z,20.80
2023-05-06T15:56:42.089Z,20.80
2023-05-06T15:58:44.907Z,20.90
2023-05-06T16:00:47.927Z,20.80
2023-05-06T16:02:50.789Z,20.70
2023-05-06T16:04:53.864Z,20.50
2023-05-06T16:06:57.594Z,20.40
2023-05-06T16:09:00.857Z,20.50
2023-05-06T16:11:05.320Z,20.40
2023-05-06T16:13:09.522Z,20.40
2023-05-06T16:15:12.748Z,20.30
2023-05-06T16:17:16.496Z,20.40
2023-05-06T16:19:19.282Z,20.40
2023-05-06T16:21:22.084Z,20.60
2023-05-06T16:23:24.884Z,20.30
2023-05-06T16:25:27.728Z,20.30
2023-05-06T16:27:30.493Z,20.10
2023-05-06T16:29:34.595Z,20.20
2023-05-06T16:31:38.261Z,20.10
2023-05-06T16:33:41.167Z,20.10
2023-05-06T16:35:43.947Z,19.90
2023-05-06T16:37:46.709Z,19.80
2023-05-06T16:39:49.508Z,19.70
2023-05-06T16:41:52.285Z,19.60
2023-05-06T16:43:55.172Z,19.50
2023-05-06T16:45:59.338Z,19.50
2023-05-06T16:48:02.166Z,19.50
2023-05-06T16:50:05.680Z,19.40
2023-05-06T16:52:08.432Z,19.20
2023-05-06T16:54:11.219Z,19.10
2023-05-06T16:56:14.047Z,19.10
2023-05-06T16:58:17.035Z,19.00
2023-05-06T17:00:21.026Z,19.00
2023-05-06T17:02:25.321Z,19.00
2023-05-06T17:04:28.194Z,19.00
2023-05-06T17:06:32.049Z,18.90
2023-05-06T17:08:36.924Z,18.90
2023-05-06T17:10:40.030Z,18.80
2023-05-06T17:12:42.959Z,18.80
2023-05-06T17:14:45.833Z,18.80
2023-05-06T17:16:48.667Z,18.70
2023-05-06T17:18:52.954Z,18.50
2023-05-06T17:20:57.159Z,18.60
2023-05-06T17:23:00.273Z,18.50
2023-05-06T17:25:03.580Z,18.60
2023-05-06T17:27:06.366Z,18.60
2023-05-06T17:29:09.183Z,18.60
2023-05-06T17:31:12.404Z,18.60
2023-05-06T17:33:16.072Z,18.60
2023-05-06T17:35:20.754Z,18.40
2023-05-06T17:37:23.731Z,18.30
2023-05-06T17:39:26.504Z,18.20
2023-05-06T17:41:29.347Z,18.10
2023-05-06T17:43:33.510Z,18.00
2023-05-06T17:45:36.285Z,17.90
2023-05-06T17:47:39.158Z,17.80
2023-05-06T17:49:41.950Z,17.80
2023-05-06T17:51:46.336Z,17.80
2023-05-06T17:53:49.506Z,17.50
2023-05-06T17:55:52.307Z,17.50
2023-05-06T17:57:55.076Z,17.40
2023-05-06T17:59:57.857Z,17.20
2023-05-06T18:02:01.182Z,17.10
2023-05-06T18:04:04.148Z,17.00
2023-05-06T18:06:07.210Z,16.90
2023-05-06T18:08:11.309Z,16.70
2023-05-06T18:10:14.197Z,16.60
2023-05-06T18:12:16.948Z,16.40
2023-05-06T18:14:19.714Z,16.40
2023-05-06T18:16:22.518Z,16.30
2023-05-06T18:18:25.375Z,16.30
2023-05-06T18:20:28.385Z,16.00
2023-05-06T18:22:31.182Z,15.90
2023-05-06T18:24:35.854Z,15.70
2023-05-06T18:26:44.496Z,15.70
2023-05-06T18:28:48.888Z,15.60
2023-05-06T18:30:52.019Z,15.70
2023-05-06T18:32:56.666Z,15.50
2023-05-06T18:35:00.082Z,15.60
2023-05-06T18:37:03.427Z,15.40
2023-05-06T18:39:06.217Z,15.30
2023-05-06T18:41:10.422Z,15.30
2023-05-06T18:43:13.254Z,15.00
2023-05-06T18:45:16.168Z,14.90
2023-05-06T18:47:19.295Z,15.00
2023-05-06T18:49:22.706Z,14.80
2023-05-06T18:51:25.487Z,14.60
2023-05-06T18:53:28.258Z,14.60
2023-05-06T18:55:31.118Z,14.60
2023-05-06T18:57:35.409Z,14.50
2023-05-06T18:59:38.169Z,14.40
2023-05-06T19:01:40.957Z,14.40
2023-05-06T19:03:44.229Z,14.30
2023-05-06T19:05:47.051Z,14.20
2023-05-06T19:07:49.807Z,14.20
2023-05-06T19:09:52.572Z,14.00
2023-05-06T19:11:55.731Z,13.90
2023-05-06T19:14:01.039Z,13.90
2023-05-06T19:16:03.826Z,13.90
2023-05-06T19:18:07.102Z,13.80
2023-05-06T19:20:11.164Z,13.80
2023-05-06T19:22:14.268Z,13.70
2023-05-06T19:24:17.082Z,13.70
2023-05-06T19:26:19.838Z,13.60
2023-05-06T19:28:22.638Z,13.50
2023-05-06T19:30:26.974Z,13.40
2023-05-06T19:32:29.836Z,13.60
2023-05-06T19:34:32.683Z,13.50
2023-05-06T19:36:35.492Z,13.30
2023-05-06T19:38:38.777Z,13.40
2023-05-06T19:40:41.563Z,13.30
2023-05-06T19:42:44.359Z,13.20
2023-05-06T19:44:48.022Z,13.10
2023-05-06T19:46:53.399Z,13.00
2023-05-06T19:48:58.023Z,13.10
2023-05-06T19:51:00.780Z,13.10
2023-05-06T19:53:03.980Z,13.10
2023-05-06T19:55:07.839Z,13.10
2023-05-06T19:57:10.613Z,13.10
2023-05-06T19:59:13.426Z,13.10
2023-05-06T20:01:17.047Z,13.10
2023-05-06T20:03:21.270Z,13.10
2023-05-06T20:05:24.127Z,13.10
2023-05-06T20:07:26.941Z,13.00
2023-05-06T20:09:29.699Z,13.00
2023-05-06T20:11:32.534Z,12.80
2023-05-06T20:13:35.486Z,12.90
2023-05-06T20:15:38.319Z,12.80
2023-05-06T20:17:41.116Z,12.90
2023-05-06T20:19:45.259Z,12.90
2023-05-06T20:21:48.060Z,13.00
2023-05-06T20:23:50.956Z,12.90
2023-05-06T20:25:53.769Z,13.00
2023-05-06T20:27:56.835Z,12.90
2023-05-06T20:29:59.618Z,12.90
2023-05-06T20:32:02.557Z,12.90
2023-05-06T20:34:05.378Z,12.90
2023-05-06T20:36:09.782Z,12.80
2023-05-06T20:38:12.579Z,12.70
2023-05-06T20:40:15.776Z,12.70
2023-05-06T20:42:18.588Z,12.60
2023-05-06T20:44:22.460Z,12.50
2023-05-06T20:46:25.379Z,12.50
2023-05-06T20:48:30.137Z,12.50
2023-05-06T20:50:32.875Z,12.50
2023-05-06T20:52:37.202Z,12.50
2023-05-06T20:54:39.978Z,12.50
2023-05-06T20:56:43.611Z,12.60
2023-05-06T20:58:46.351Z,12.50
2023-05-06T21:00:50.354Z,12.50
2023-05-06T21:02:53.266Z,12.50
2023-05-06T21:04:56.116Z,12.30
2023-05-06T21:06:59.136Z,12.50
2023-05-06T21:09:03.302Z,12.40
2023-05-06T21:11:06.087Z,12.30
2023-05-06T21:13:08.911Z,12.40
2023-05-06T21:15:12.388Z,12.40
2023-05-06T21:17:15.328Z,12.40
2023-05-06T21:19:18.094Z,12.40
2023-05-06T21:21:20.984Z,12.30
2023-05-06T21:23:23.750Z,12.40
2023-05-06T21:25:27.985Z,12.30
2023-05-06T21:27:30.768Z,12.30
2023-05-06T21:29:33.579Z,12.30
2023-05-06T21:31:36.686Z,12.30
2023-05-06T21:33:39.658Z,12.30
2023-05-06T21:35:42.460Z,12.20
2023-05-06T21:37:45.242Z,12.20
2023-05-06T21:39:48.059Z,12.20
2023-05-06T21:41:52.192Z,12.20
2023-05-06T21:43:54.996Z,12.20
2023-05-06T21:45:57.777Z,12.20
2023-05-06T21:48:00.640Z,12.10
2023-05-06T21:50:03.557Z,12.10
2023-05-06T21:52:07.258Z,12.10
2023-05-06T21:54:10.132Z,12.00
2023-05-06T21:56:13.235Z,12.10
2023-05-06T21:58:17.492Z,12.00
2023-05-06T22:00:20.506Z,12.00
2023-05-06T22:02:23.406Z,12.00
2023-05-06T22:04:26.256Z,12.00
2023-05-06T22:06:29.146Z,12.00
2023-05-06T22:08:32.157Z,12.00
2023-05-06T22:10:34.942Z,12.10
2023-05-06T22:12:37.792Z,12.10
2023-05-06T22:14:42.023Z,12.00
2023-05-06T22:16:45.746Z,11.90
2023-05-06T22:18:48.870Z,11.90
2023-05-06T22:20:52.479Z,11.90
2023-05-06T22:22:55.681Z,11.90
2023-05-06T22:24:58.449Z,12.00
2023-05-06T22:27:01.746Z,11.90
2023-05-06T22:29:04.540Z,11.90
2023-05-06T22:31:08.769Z,11.90
2023-05-06T22:33:11.760Z,12.00
2023-05-06T22:35:14.932Z,11.90
2023-05-06T22:37:18.103Z,12.00
2023-05-06T22:39:21.484Z,11.90
2023-05-06T22:41:24.248Z,11.80
2023-05-06T22:43:27.042Z,11.90
2023-05-06T22:45:29.873Z,11.70
2023-05-06T22:47:34.107Z,11.90
2023-05-06T22:49:36.947Z,11.60
2023-05-06T22:51:39.713Z,11.80
2023-05-06T22:53:42.520Z,11.90
2023-05-06T22:55:45.412Z,11.80
2023-05-06T22:57:49.972Z,11.80
2023-05-06T22:59:52.859Z,11.80
2023-05-06T23:01:55.962Z,11.80
2023-05-06T23:04:00.561Z,11.70
2023-05-06T23:06:04.423Z,11.80
2023-05-06T23:08:07.232Z,11.70
2023-05-06T23:10:10.607Z,11.70
2023-05-06T23:12:13.393Z,11.70
2023-05-06T23:14:17.328Z,11.70
2023-05-06T23:16:20.981Z,11.60
2023-05-06T23:18:23.838Z,11.60
2023-05-06T23:20:27.951Z,11.60
2023-05-06T23:22:30.842Z,11.60
2023-05-06T23:24:33.969Z,11.70
2023-05-06T23:26:36.791Z,11.70
2023-05-06T23:28:39.572Z,11.70
2023-05-06T23:30:42.618Z,11.60
2023-05-06T23:32:45.441Z,11.60
2023-05-06T23:34:49.102Z,11.60
2023-05-06T23:36:53.252Z,11.50
2023-05-06T23:38:56.467Z,11.40
2023-05-06T23:40:59.268Z,11.40
2023-05-06T23:43:02.018Z,11.50
2023-05-06T23:45:05.375Z,11.40
2023-05-06T23:47:08.180Z,11.40
2023-05-06T23:49:10.987Z,11.40
2023-05-06T23:51:13.832Z,11.40
2023-05-06T23:53:17.992Z,11.30
2023-05-06T23:55:21.112Z,11.30
2023-05-06T23:57:23.899Z,11.20
2023-05-06T23:59:26.698Z,11.10
